KLTS/LTS METAR and TAF weather

Enter ICAO airport designator
Station Type Date Time Source
KLTS METAR 2020/01/21 08:56 UTC NOAA

KLTS 210856Z AUTO 05008KT 10SM CLR 00/M02 A3043 RMK AO2 SLP310 T10011023 58001 $


Station Type Date Time Source
KLTS Decoded METAR 2020/01/21 08:56 UTC NOAA

Altus Air Force Base, OK, United States (KLTS) 34-39N 099-16W 420M
Jan 21, 2020 - 03:56 AM EST / 2020.01.21 0856 UTC
Wind: from the NE (050 degrees) at 9 MPH (8 KT):0
Visibility: 10 mile(s):0
Sky conditions: clear
Temperature: 31.8 F (-0.1 C)
Windchill: 24 F (-4 C):1
Dew Point: 27.9 F (-2.3 C)
Relative Humidity: 85%
Pressure (altimeter): 30.43 in. Hg (1030 hPa)
Pressure tendency: 0.00 inches (0.1 hPa) lower than three hours ago
ob: KLTS 210856Z AUTO 05008KT 10SM CLR 00/M02 A3043 RMK AO2 SLP310 T10011023 58001
cycle: 9

Station Type Date Time Source
KLTS TAF 2020/01/21 09:28 UTC NOAA

TAF KLTS 210905Z 2109/2215 VRB06KT 9999 SCT200 QNH3036INS
BECMG 2116/2117 14010G15KT 9999 SCT080 BKN150 QNH3020INS
BECMG 2121/2122 15010KT 9999 BKN060 620802 QNH3014INS
BECMG 2203/2204 16012KT 9000 -RA OVC015 620604 QNH3003INS
BECMG 2207/2208 16012KT 8000 -RA OVC005 620604 QNH2990INS TX08/2121Z TNM01/2112Z

Example: see airport list